Dege, China
Current Conditions -  °F | °C
As of 3:00 PM on Tuesday 21 Oct 2014 (Local Time) from ZUUU Reporting Station
Few Clouds Few Clouds  
Wind Chill: 81°   Ceiling: Unl
Heat Index: 81°   Visibility: 6mi
Dew Point: 48°   Wind: 4mph
Humidity: 32%   Direction: 190°S
Pressure: 30.12"   Gusts: NA
Location:  31.73°N, 98.57°E
Report Text: ZUUU 210700Z 19002MPS 090V230 9999 FEW026 27/09 Q1020 NOSIG
Loading
Personal Weather Stations






























Interactive Weather Map
Tropical Storm Tracking
New forecast layout! Learn more

10-Day Weather Forecast

Advertisements
Track Severe Weather on mobile